sensor_id;sensor_type;location;lat;lon;timestamp;temperature;humidity
4431;DHT22;2228;48.140;11.488;2023-06-14T00:01:21;12.60;99.90
4431;DHT22;2228;48.140;11.488;2023-06-14T00:03:48;12.50;99.90
4431;DHT22;2228;48.140;11.488;2023-06-14T00:06:15;12.50;99.90
4431;DHT22;2228;48.140;11.488;2023-06-14T00:08:42;12.50;99.90
4431;DHT22;2228;48.140;11.488;2023-06-14T00:11:09;12.50;99.90
4431;DHT22;2228;48.140;11.488;2023-06-14T00:13:38;12.60;99.90
4431;DHT22;2228;48.140;11.488;2023-06-14T00:16:05;12.40;99.90
4431;DHT22;2228;48.140;11.488;2023-06-14T00:18:32;12.30;99.90
4431;DHT22;2228;48.140;11.488;2023-06-14T00:20:59;12.20;99.90
4431;DHT22;2228;48.140;11.488;2023-06-14T00:23:29;12.20;99.90
4431;DHT22;2228;48.140;11.488;2023-06-14T00:25:56;12.20;99.90
4431;DHT22;2228;48.140;11.488;2023-06-14T00:28:23;12.20;99.90
4431;DHT22;2228;48.140;11.488;2023-06-14T00:30:52;12.30;99.90
4431;DHT22;2228;48.140;11.488;2023-06-14T00:33:19;12.10;99.90
4431;DHT22;2228;48.140;11.488;2023-06-14T00:35:46;12.10;99.90
4431;DHT22;2228;48.140;11.488;2023-06-14T00:38:13;12.10;99.90
4431;DHT22;2228;48.140;11.488;2023-06-14T00:40:40;12.00;99.90
4431;DHT22;2228;48.140;11.488;2023-06-14T00:43:07;11.90;99.90
4431;DHT22;2228;48.140;11.488;2023-06-14T00:45:35;11.90;99.90
4431;DHT22;2228;48.140;11.488;2023-06-14T00:48:05;11.90;99.90
4431;DHT22;2228;48.140;11.488;2023-06-14T00:50:35;11.80;99.90
4431;DHT22;2228;48.140;11.488;2023-06-14T00:53:04;11.80;99.90
4431;DHT22;2228;48.140;11.488;2023-06-14T00:55:32;11.90;99.90
4431;DHT22;2228;48.140;11.488;2023-06-14T00:57:59;11.90;99.90
4431;DHT22;2228;48.140;11.488;2023-06-14T01:00:26;11.90;99.90
4431;DHT22;2228;48.140;11.488;2023-06-14T01:02:54;11.90;99.90
4431;DHT22;2228;48.140;11.488;2023-06-14T01:05:24;11.70;99.90
4431;DHT22;2228;48.140;11.488;2023-06-14T01:08:05;11.60;99.90
4431;DHT22;2228;48.140;11.488;2023-06-14T01:10:44;11.50;99.90
4431;DHT22;2228;48.140;11.488;2023-06-14T01:13:20;11.60;99.90
4431;DHT22;2228;48.140;11.488;2023-06-14T01:15:48;11.40;99.90
4431;DHT22;2228;48.140;11.488;2023-06-14T01:18:16;11.30;99.90
4431;DHT22;2228;48.140;11.488;2023-06-14T01:20:48;11.30;99.90
4431;DHT22;2228;48.140;11.488;2023-06-14T01:23:18;11.30;99.90
4431;DHT22;2228;48.140;11.488;2023-06-14T01:25:46;11.30;99.90
4431;DHT22;2228;48.140;11.488;2023-06-14T01:28:15;11.40;99.90
4431;DHT22;2228;48.140;11.488;2023-06-14T01:30:46;11.30;99.90
4431;DHT22;2228;48.140;11.488;2023-06-14T01:33:16;11.30;99.90
4431;DHT22;2228;48.140;11.488;2023-06-14T01:35:46;11.30;99.90
4431;DHT22;2228;48.140;11.488;2023-06-14T01:38:14;11.30;99.90
4431;DHT22;2228;48.140;11.488;2023-06-14T01:40:44;11.30;99.90
4431;DHT22;2228;48.140;11.488;2023-06-14T01:43:13;11.20;99.90
4431;DHT22;2228;48.140;11.488;2023-06-14T01:45:40;11.10;99.90
4431;DHT22;2228;48.140;11.488;2023-06-14T01:48:09;11.00;99.90
4431;DHT22;2228;48.140;11.488;2023-06-14T01:50:36;11.00;99.90
4431;DHT22;2228;48.140;11.488;2023-06-14T01:53:06;10.90;99.90
4431;DHT22;2228;48.140;11.488;2023-06-14T01:55:34;11.00;1.00
4431;DHT22;2228;48.140;11.488;2023-06-14T01:58:04;11.10;1.00
4431;DHT22;2228;48.140;11.488;2023-06-14T02:00:31;11.20;1.00
4431;DHT22;2228;48.140;11.488;2023-06-14T02:02:59;11.10;1.00
4431;DHT22;2228;48.140;11.488;2023-06-14T02:05:27;11.10;1.00
4431;DHT22;2228;48.140;11.488;2023-06-14T02:07:54;11.20;1.00
4431;DHT22;2228;48.140;11.488;2023-06-14T02:10:22;11.00;1.00
4431;DHT22;2228;48.140;11.488;2023-06-14T02:12:49;11.10;1.00
4431;DHT22;2228;48.140;11.488;2023-06-14T02:15:18;11.10;1.00
4431;DHT22;2228;48.140;11.488;2023-06-14T02:17:48;11.10;1.00
4431;DHT22;2228;48.140;11.488;2023-06-14T02:20:16;11.10;1.00
4431;DHT22;2228;48.140;11.488;2023-06-14T02:22:45;10.90;1.00
4431;DHT22;2228;48.140;11.488;2023-06-14T02:25:12;10.80;1.00
4431;DHT22;2228;48.140;11.488;2023-06-14T02:27:41;10.80;1.00
4431;DHT22;2228;48.140;11.488;2023-06-14T02:30:09;10.60;1.00
4431;DHT22;2228;48.140;11.488;2023-06-14T02:32:37;10.60;1.00
4431;DHT22;2228;48.140;11.488;2023-06-14T02:35:07;10.70;1.00
4431;DHT22;2228;48.140;11.488;2023-06-14T02:37:34;10.80;1.00
4431;DHT22;2228;48.140;11.488;2023-06-14T02:40:01;10.90;1.00
4431;DHT22;2228;48.140;11.488;2023-06-14T02:42:30;10.80;1.00
4431;DHT22;2228;48.140;11.488;2023-06-14T02:44:58;10.70;1.00
4431;DHT22;2228;48.140;11.488;2023-06-14T02:47:25;10.50;1.00
4431;DHT22;2228;48.140;11.488;2023-06-14T02:49:53;10.50;1.00
4431;DHT22;2228;48.140;11.488;2023-06-14T02:52:20;10.50;1.00
4431;DHT22;2228;48.140;11.488;2023-06-14T02:54:48;10.60;1.00
4431;DHT22;2228;48.140;11.488;2023-06-14T02:57:15;10.50;1.00
4431;DHT22;2228;48.140;11.488;2023-06-14T02:59:42;10.60;1.00
4431;DHT22;2228;48.140;11.488;2023-06-14T03:02:09;10.90;1.00
4431;DHT22;2228;48.140;11.488;2023-06-14T03:04:36;10.70;1.00
4431;DHT22;2228;48.140;11.488;2023-06-14T03:07:05;10.60;1.00
4431;DHT22;2228;48.140;11.488;2023-06-14T03:09:35;10.40;1.00
4431;DHT22;2228;48.140;11.488;2023-06-14T03:12:04;10.40;1.00
4431;DHT22;2228;48.140;11.488;2023-06-14T03:14:32;10.50;1.00
4431;DHT22;2228;48.140;11.488;2023-06-14T03:17:00;10.50;1.00
4431;DHT22;2228;48.140;11.488;2023-06-14T03:19:27;10.60;1.00
4431;DHT22;2228;48.140;11.488;2023-06-14T03:21:55;10.50;1.00
4431;DHT22;2228;48.140;11.488;2023-06-14T03:24:25;10.30;1.00
4431;DHT22;2228;48.140;11.488;2023-06-14T03:26:54;10.40;1.00
4431;DHT22;2228;48.140;11.488;2023-06-14T03:29:22;10.40;1.00
4431;DHT22;2228;48.140;11.488;2023-06-14T03:31:58;10.30;1.00
4431;DHT22;2228;48.140;11.488;2023-06-14T03:34:27;10.30;1.00
4431;DHT22;2228;48.140;11.488;2023-06-14T03:36:54;10.20;1.00
4431;DHT22;2228;48.140;11.488;2023-06-14T03:39:21;10.40;1.00
4431;DHT22;2228;48.140;11.488;2023-06-14T03:41:50;10.30;1.00
4431;DHT22;2228;48.140;11.488;2023-06-14T03:44:18;10.40;1.00
4431;DHT22;2228;48.140;11.488;2023-06-14T03:46:45;10.40;1.00
4431;DHT22;2228;48.140;11.488;2023-06-14T03:49:12;10.50;1.00
4431;DHT22;2228;48.140;11.488;2023-06-14T03:51:42;10.60;1.00
4431;DHT22;2228;48.140;11.488;2023-06-14T03:54:09;10.80;1.00
4431;DHT22;2228;48.140;11.488;2023-06-14T03:56:36;10.90;1.00
4431;DHT22;2228;48.140;11.488;2023-06-14T03:59:05;10.90;1.00
4431;DHT22;2228;48.140;11.488;2023-06-14T04:01:33;11.00;1.00
4431;DHT22;2228;48.140;11.488;2023-06-14T04:04:00;10.80;1.00
4431;DHT22;2228;48.140;11.488;2023-06-14T04:06:29;10.80;1.00
4431;DHT22;2228;48.140;11.488;2023-06-14T04:08:59;10.90;1.00
4431;DHT22;2228;48.140;11.488;2023-06-14T04:11:29;10.90;1.00
4431;DHT22;2228;48.140;11.488;2023-06-14T04:13:56;10.90;1.00
4431;DHT22;2228;48.140;11.488;2023-06-14T04:16:25;10.90;1.00
4431;DHT22;2228;48.140;11.488;2023-06-14T04:18:53;11.00;1.00
4431;DHT22;2228;48.140;11.488;2023-06-14T04:21:20;11.10;1.00
4431;DHT22;2228;48.140;11.488;2023-06-14T04:23:49;11.20;1.00
4431;DHT22;2228;48.140;11.488;2023-06-14T04:26:18;11.50;1.00
4431;DHT22;2228;48.140;11.488;2023-06-14T04:28:46;11.70;1.00
4431;DHT22;2228;48.140;11.488;2023-06-14T04:31:15;11.80;1.00
4431;DHT22;2228;48.140;11.488;2023-06-14T04:33:43;12.00;1.00
4431;DHT22;2228;48.140;11.488;2023-06-14T04:36:12;12.10;1.00
4431;DHT22;2228;48.140;11.488;2023-06-14T04:38:43;12.30;99.90
4431;DHT22;2228;48.140;11.488;2023-06-14T04:41:11;12.40;99.90
4431;DHT22;2228;48.140;11.488;2023-06-14T04:43:39;12.50;99.90
4431;DHT22;2228;48.140;11.488;2023-06-14T04:46:09;12.80;99.90
4431;DHT22;2228;48.140;11.488;2023-06-14T04:48:37;12.90;99.90
4431;DHT22;2228;48.140;11.488;2023-06-14T04:51:10;13.10;99.90
4431;DHT22;2228;48.140;11.488;2023-06-14T04:53:41;13.20;99.90
4431;DHT22;2228;48.140;11.488;2023-06-14T04:56:09;13.30;99.90
4431;DHT22;2228;48.140;11.488;2023-06-14T04:58:51;13.20;99.90
4431;DHT22;2228;48.140;11.488;2023-06-14T05:01:27;13.40;99.90
4431;DHT22;2228;48.140;11.488;2023-06-14T05:03:57;13.50;99.90
4431;DHT22;2228;48.140;11.488;2023-06-14T05:06:26;13.60;99.90
4431;DHT22;2228;48.140;11.488;2023-06-14T05:08:55;13.90;99.90
4431;DHT22;2228;48.140;11.488;2023-06-14T05:11:22;13.90;99.90
4431;DHT22;2228;48.140;11.488;2023-06-14T05:13:52;14.10;99.90
4431;DHT22;2228;48.140;11.488;2023-06-14T05:16:19;14.20;99.90
4431;DHT22;2228;48.140;11.488;2023-06-14T05:18:48;14.30;99.90
4431;DHT22;2228;48.140;11.488;2023-06-14T05:21:17;14.60;99.90
4431;DHT22;2228;48.140;11.488;2023-06-14T05:23:45;14.70;99.90
4431;DHT22;2228;48.140;11.488;2023-06-14T05:26:13;14.90;99.90
4431;DHT22;2228;48.140;11.488;2023-06-14T05:28:41;15.00;99.90
4431;DHT22;2228;48.140;11.488;2023-06-14T05:31:08;15.20;99.90
4431;DHT22;2228;48.140;11.488;2023-06-14T05:33:35;15.30;99.90
4431;DHT22;2228;48.140;11.488;2023-06-14T05:36:02;15.40;99.90
4431;DHT22;2228;48.140;11.488;2023-06-14T05:38:29;15.50;99.90
4431;DHT22;2228;48.140;11.488;2023-06-14T05:41:01;15.60;99.90
4431;DHT22;2228;48.140;11.488;2023-06-14T05:43:28;15.70;99.90
4431;DHT22;2228;48.140;11.488;2023-06-14T05:45:55;15.80;99.90
4431;DHT22;2228;48.140;11.488;2023-06-14T05:48:22;16.00;99.90
4431;DHT22;2228;48.140;11.488;2023-06-14T05:50:49;16.30;99.90
4431;DHT22;2228;48.140;11.488;2023-06-14T05:53:17;16.40;99.90
4431;DHT22;2228;48.140;11.488;2023-06-14T05:55:44;16.60;99.90
4431;DHT22;2228;48.140;11.488;2023-06-14T05:58:14;16.60;99.90
4431;DHT22;2228;48.140;11.488;2023-06-14T06:00:41;16.70;99.90
4431;DHT22;2228;48.140;11.488;2023-06-14T06:03:08;16.80;99.90
4431;DHT22;2228;48.140;11.488;2023-06-14T06:05:36;17.00;99.90
4431;DHT22;2228;48.140;11.488;2023-06-14T06:08:04;17.20;99.90
4431;DHT22;2228;48.140;11.488;2023-06-14T06:10:31;17.30;99.90
4431;DHT22;2228;48.140;11.488;2023-06-14T06:12:58;17.50;99.90
4431;DHT22;2228;48.140;11.488;2023-06-14T06:15:27;17.60;99.90
4431;DHT22;2228;48.140;11.488;2023-06-14T06:17:54;17.70;99.90
4431;DHT22;2228;48.140;11.488;2023-06-14T06:20:21;17.90;99.90
4431;DHT22;2228;48.140;11.488;2023-06-14T06:22:53;18.10;99.90
4431;DHT22;2228;48.140;11.488;2023-06-14T06:25:21;18.10;99.90
4431;DHT22;2228;48.140;11.488;2023-06-14T06:27:51;18.20;99.90
4431;DHT22;2228;48.140;11.488;2023-06-14T06:30:19;18.20;99.90
4431;DHT22;2228;48.140;11.488;2023-06-14T06:32:47;18.30;99.90
4431;DHT22;2228;48.140;11.488;2023-06-14T06:35:15;18.30;99.90
4431;DHT22;2228;48.140;11.488;2023-06-14T06:37:42;18.40;99.90
4431;DHT22;2228;48.140;11.488;2023-06-14T06:40:12;18.60;99.90
4431;DHT22;2228;48.140;11.488;2023-06-14T06:42:41;18.70;99.90
4431;DHT22;2228;48.140;11.488;2023-06-14T06:45:09;18.80;99.90
4431;DHT22;2228;48.140;11.488;2023-06-14T06:47:36;18.90;99.90
4431;DHT22;2228;48.140;11.488;2023-06-14T06:50:06;19.00;99.90
4431;DHT22;2228;48.140;11.488;2023-06-14T06:52:33;19.10;99.90
4431;DHT22;2228;48.140;11.488;2023-06-14T06:55:01;19.30;99.90
4431;DHT22;2228;48.140;11.488;2023-06-14T06:57:29;19.50;99.90
4431;DHT22;2228;48.140;11.488;2023-06-14T06:59:56;19.70;99.90
4431;DHT22;2228;48.140;11.488;2023-06-14T07:02:23;19.90;99.90
4431;DHT22;2228;48.140;11.488;2023-06-14T07:04:50;19.90;99.90
4431;DHT22;2228;48.140;11.488;2023-06-14T07:07:22;20.00;99.90
4431;DHT22;2228;48.140;11.488;2023-06-14T07:09:49;20.20;99.90
4431;DHT22;2228;48.140;11.488;2023-06-14T07:12:18;20.30;99.90
4431;DHT22;2228;48.140;11.488;2023-06-14T07:14:45;20.40;99.90
4431;DHT22;2228;48.140;11.488;2023-06-14T07:17:12;20.50;99.90
4431;DHT22;2228;48.140;11.488;2023-06-14T07:19:40;20.60;99.90
4431;DHT22;2228;48.140;11.488;2023-06-14T07:22:08;20.60;99.90
4431;DHT22;2228;48.140;11.488;2023-06-14T07:24:49;21.00;99.90
4431;DHT22;2228;48.140;11.488;2023-06-14T07:27:19;21.10;99.90
4431;DHT22;2228;48.140;11.488;2023-06-14T07:29:48;21.40;99.90
4431;DHT22;2228;48.140;11.488;2023-06-14T07:32:25;21.40;99.90
4431;DHT22;2228;48.140;11.488;2023-06-14T07:34:54;21.60;99.90
4431;DHT22;2228;48.140;11.488;2023-06-14T07:37:28;21.70;99.90
4431;DHT22;2228;48.140;11.488;2023-06-14T07:40:04;21.80;99.90
4431;DHT22;2228;48.140;11.488;2023-06-14T07:42:33;22.00;99.90
4431;DHT22;2228;48.140;11.488;2023-06-14T07:45:01;22.20;99.90
4431;DHT22;2228;48.140;11.488;2023-06-14T07:47:35;22.30;99.90
4431;DHT22;2228;48.140;11.488;2023-06-14T07:50:06;22.30;99.90
4431;DHT22;2228;48.140;11.488;2023-06-14T07:52:34;22.30;99.90
4431;DHT22;2228;48.140;11.488;2023-06-14T07:55:03;22.30;99.90
4431;DHT22;2228;48.140;11.488;2023-06-14T07:57:31;22.40;99.90
4431;DHT22;2228;48.140;11.488;2023-06-14T07:59:58;22.60;99.90
4431;DHT22;2228;48.140;11.488;2023-06-14T08:02:25;22.70;99.90
4431;DHT22;2228;48.140;11.488;2023-06-14T08:04:52;23.00;99.90
4431;DHT22;2228;48.140;11.488;2023-06-14T08:07:19;23.00;99.90
4431;DHT22;2228;48.140;11.488;2023-06-14T08:09:46;23.30;99.90
4431;DHT22;2228;48.140;11.488;2023-06-14T08:12:15;23.60;99.90
4431;DHT22;2228;48.140;11.488;2023-06-14T08:14:42;23.50;99.90
4431;DHT22;2228;48.140;11.488;2023-06-14T08:17:09;23.90;99.90
4431;DHT22;2228;48.140;11.488;2023-06-14T08:19:36;24.10;99.90
4431;DHT22;2228;48.140;11.488;2023-06-14T08:22:04;24.40;99.90
4431;DHT22;2228;48.140;11.488;2023-06-14T08:24:31;24.50;99.90
4431;DHT22;2228;48.140;11.488;2023-06-14T08:26:58;24.90;99.90
4431;DHT22;2228;48.140;11.488;2023-06-14T08:29:29;25.40;99.90
4431;DHT22;2228;48.140;11.488;2023-06-14T08:31:56;25.60;99.90
4431;DHT22;2228;48.140;11.488;2023-06-14T08:34:23;25.70;99.90
4431;DHT22;2228;48.140;11.488;2023-06-14T08:36:52;26.30;99.90
4431;DHT22;2228;48.140;11.488;2023-06-14T08:39:21;26.80;99.90
4431;DHT22;2228;48.140;11.488;2023-06-14T08:41:57;27.10;99.90
4431;DHT22;2228;48.140;11.488;2023-06-14T08:44:25;27.20;99.90
4431;DHT22;2228;48.140;11.488;2023-06-14T08:46:55;27.30;99.90
4431;DHT22;2228;48.140;11.488;2023-06-14T08:49:23;27.50;99.90
4431;DHT22;2228;48.140;11.488;2023-06-14T08:51:56;27.90;99.90
4431;DHT22;2228;48.140;11.488;2023-06-14T08:54:28;28.10;99.90
4431;DHT22;2228;48.140;11.488;2023-06-14T08:56:56;28.10;99.90
4431;DHT22;2228;48.140;11.488;2023-06-14T08:59:26;28.10;99.90
4431;DHT22;2228;48.140;11.488;2023-06-14T09:02:00;28.50;99.90
4431;DHT22;2228;48.140;11.488;2023-06-14T09:04:29;29.00;99.90
4431;DHT22;2228;48.140;11.488;2023-06-14T09:07:00;29.20;99.90
4431;DHT22;2228;48.140;11.488;2023-06-14T09:09:32;29.20;99.90
4431;DHT22;2228;48.140;11.488;2023-06-14T09:12:01;28.70;99.90
4431;DHT22;2228;48.140;11.488;2023-06-14T09:14:38;29.10;99.90
4431;DHT22;2228;48.140;11.488;2023-06-14T09:17:09;29.70;99.90
4431;DHT22;2228;48.140;11.488;2023-06-14T09:19:39;29.60;99.90
4431;DHT22;2228;48.140;11.488;2023-06-14T09:22:07;29.40;99.90
4431;DHT22;2228;48.140;11.488;2023-06-14T09:24:41;29.50;99.90
4431;DHT22;2228;48.140;11.488;2023-06-14T09:27:08;29.90;99.90
4431;DHT22;2228;48.140;11.488;2023-06-14T09:30:00;29.90;99.90
4431;DHT22;2228;48.140;11.488;2023-06-14T09:32:29;30.30;99.90
4431;DHT22;2228;48.140;11.488;2023-06-14T09:34:56;30.60;99.90
4431;DHT22;2228;48.140;11.488;2023-06-14T09:37:28;30.50;99.90
4431;DHT22;2228;48.140;11.488;2023-06-14T09:39:56;31.00;99.90
4431;DHT22;2228;48.140;11.488;2023-06-14T09:42:38;30.70;99.90
4431;DHT22;2228;48.140;11.488;2023-06-14T09:45:31;30.80;99.90
4431;DHT22;2228;48.140;11.488;2023-06-14T09:48:11;31.10;99.90
4431;DHT22;2228;48.140;11.488;2023-06-14T09:50:45;31.00;99.90
4431;DHT22;2228;48.140;11.488;2023-06-14T09:53:13;31.70;99.90
4431;DHT22;2228;48.140;11.488;2023-06-14T09:55:41;31.40;99.90
4431;DHT22;2228;48.140;11.488;2023-06-14T09:58:10;30.10;99.90
4431;DHT22;2228;48.140;11.488;2023-06-14T10:00:39;29.60;99.90
4431;DHT22;2228;48.140;11.488;2023-06-14T10:03:13;30.00;99.90
4431;DHT22;2228;48.140;11.488;2023-06-14T10:05:45;30.70;99.90
4431;DHT22;2228;48.140;11.488;2023-06-14T10:08:15;31.50;99.90
4431;DHT22;2228;48.140;11.488;2023-06-14T10:10:43;32.10;99.90
4431;DHT22;2228;48.140;11.488;2023-06-14T10:13:11;32.90;99.90
4431;DHT22;2228;48.140;11.488;2023-06-14T10:15:47;32.20;99.90
4431;DHT22;2228;48.140;11.488;2023-06-14T10:18:21;31.30;99.90
4431;DHT22;2228;48.140;11.488;2023-06-14T10:20:57;31.80;99.90
4431;DHT22;2228;48.140;11.488;2023-06-14T10:23:32;31.30;99.90
4431;DHT22;2228;48.140;11.488;2023-06-14T10:26:02;30.60;99.90
4431;DHT22;2228;48.140;11.488;2023-06-14T10:28:29;30.90;99.90
4431;DHT22;2228;48.140;11.488;2023-06-14T10:31:05;31.80;99.90
4431;DHT22;2228;48.140;11.488;2023-06-14T10:33:35;32.50;99.90
4431;DHT22;2228;48.140;11.488;2023-06-14T10:36:25;31.50;99.90
4431;DHT22;2228;48.140;11.488;2023-06-14T10:39:05;30.20;99.90
4431;DHT22;2228;48.140;11.488;2023-06-14T10:41:36;29.50;99.90
4431;DHT22;2228;48.140;11.488;2023-06-14T10:46:59;31.50;99.90
4431;DHT22;2228;48.140;11.488;2023-06-14T10:49:42;32.00;99.90
4431;DHT22;2228;48.140;11.488;2023-06-14T10:52:12;32.60;99.90
4431;DHT22;2228;48.140;11.488;2023-06-14T10:55:02;32.20;99.90
4431;DHT22;2228;48.140;11.488;2023-06-14T10:57:32;32.00;99.90
4431;DHT22;2228;48.140;11.488;2023-06-14T10:59:59;31.90;99.90
4431;DHT22;2228;48.140;11.488;2023-06-14T11:02:59;31.50;99.90
4431;DHT22;2228;48.140;11.488;2023-06-14T11:05:45;32.40;99.90
4431;DHT22;2228;48.140;11.488;2023-06-14T11:11:14;33.10;99.90
4431;DHT22;2228;48.140;11.488;2023-06-14T11:13:45;33.60;99.90
4431;DHT22;2228;48.140;11.488;2023-06-14T11:16:13;33.30;99.90
4431;DHT22;2228;48.140;11.488;2023-06-14T11:18:41;34.10;99.90
4431;DHT22;2228;48.140;11.488;2023-06-14T11:21:09;33.80;99.90
4431;DHT22;2228;48.140;11.488;2023-06-14T11:23:36;32.50;99.90
4431;DHT22;2228;48.140;11.488;2023-06-14T11:26:03;32.20;99.90
4431;DHT22;2228;48.140;11.488;2023-06-14T11:28:37;31.40;99.90
4431;DHT22;2228;48.140;11.488;2023-06-14T11:31:05;31.50;99.90
4431;DHT22;2228;48.140;11.488;2023-06-14T11:33:32;32.00;99.90
4431;DHT22;2228;48.140;11.488;2023-06-14T11:36:01;32.60;99.90
4431;DHT22;2228;48.140;11.488;2023-06-14T11:38:30;33.40;99.90
4431;DHT22;2228;48.140;11.488;2023-06-14T11:40:59;33.10;99.90
4431;DHT22;2228;48.140;11.488;2023-06-14T11:43:26;32.90;99.90
4431;DHT22;2228;48.140;11.488;2023-06-14T11:45:54;32.50;99.90
4431;DHT22;2228;48.140;11.488;2023-06-14T11:48:21;31.20;99.90
4431;DHT22;2228;48.140;11.488;2023-06-14T11:50:50;31.30;99.90
4431;DHT22;2228;48.140;11.488;2023-06-14T11:53:18;32.10;99.90
4431;DHT22;2228;48.140;11.488;2023-06-14T11:55:46;32.60;99.90
4431;DHT22;2228;48.140;11.488;2023-06-14T11:58:13;32.40;99.90
4431;DHT22;2228;48.140;11.488;2023-06-14T12:00:41;33.30;99.90
4431;DHT22;2228;48.140;11.488;2023-06-14T12:03:08;33.90;99.90
4431;DHT22;2228;48.140;11.488;2023-06-14T12:05:36;34.00;99.90
4431;DHT22;2228;48.140;11.488;2023-06-14T12:08:04;34.10;99.90
4431;DHT22;2228;48.140;11.488;2023-06-14T12:10:39;34.50;99.90
4431;DHT22;2228;48.140;11.488;2023-06-14T12:13:10;34.10;99.90
4431;DHT22;2228;48.140;11.488;2023-06-14T12:15:37;33.70;99.90
4431;DHT22;2228;48.140;11.488;2023-06-14T12:18:05;34.30;99.90
4431;DHT22;2228;48.140;11.488;2023-06-14T12:20:33;34.70;99.90
4431;DHT22;2228;48.140;11.488;2023-06-14T12:23:03;34.90;99.90
4431;DHT22;2228;48.140;11.488;2023-06-14T12:25:31;34.50;99.90
4431;DHT22;2228;48.140;11.488;2023-06-14T12:27:59;33.90;99.90
4431;DHT22;2228;48.140;11.488;2023-06-14T12:30:28;34.30;99.90
4431;DHT22;2228;48.140;11.488;2023-06-14T12:32:55;35.70;99.90
4431;DHT22;2228;48.140;11.488;2023-06-14T12:35:22;36.40;99.90
4431;DHT22;2228;48.140;11.488;2023-06-14T12:37:49;36.80;99.90
4431;DHT22;2228;48.140;11.488;2023-06-14T12:40:16;36.00;99.90
4431;DHT22;2228;48.140;11.488;2023-06-14T12:42:44;35.20;99.90
4431;DHT22;2228;48.140;11.488;2023-06-14T12:45:12;35.10;99.90
4431;DHT22;2228;48.140;11.488;2023-06-14T12:47:41;35.00;99.90
4431;DHT22;2228;48.140;11.488;2023-06-14T12:50:08;34.60;99.90
4431;DHT22;2228;48.140;11.488;2023-06-14T12:52:35;34.70;99.90
4431;DHT22;2228;48.140;11.488;2023-06-14T12:55:03;34.80;99.90
4431;DHT22;2228;48.140;11.488;2023-06-14T12:57:30;35.40;99.90
4431;DHT22;2228;48.140;11.488;2023-06-14T12:59:59;34.30;99.90
4431;DHT22;2228;48.140;11.488;2023-06-14T13:02:28;33.40;99.90
4431;DHT22;2228;48.140;11.488;2023-06-14T13:04:57;31.80;99.90
4431;DHT22;2228;48.140;11.488;2023-06-14T13:07:28;31.20;99.90
4431;DHT22;2228;48.140;11.488;2023-06-14T13:10:01;30.50;99.90
4431;DHT22;2228;48.140;11.488;2023-06-14T13:12:36;29.80;99.90
4431;DHT22;2228;48.140;11.488;2023-06-14T13:15:04;29.50;99.90
4431;DHT22;2228;48.140;11.488;2023-06-14T13:17:33;29.60;99.90
4431;DHT22;2228;48.140;11.488;2023-06-14T13:20:07;30.60;99.90
4431;DHT22;2228;48.140;11.488;2023-06-14T13:22:35;31.90;99.90
4431;DHT22;2228;48.140;11.488;2023-06-14T13:25:04;31.70;99.90
4431;DHT22;2228;48.140;11.488;2023-06-14T13:27:32;31.00;99.90
4431;DHT22;2228;48.140;11.488;2023-06-14T13:29:59;30.30;99.90
4431;DHT22;2228;48.140;11.488;2023-06-14T13:32:27;30.70;99.90
4431;DHT22;2228;48.140;11.488;2023-06-14T13:34:54;31.90;99.90
4431;DHT22;2228;48.140;11.488;2023-06-14T13:37:22;33.10;99.90
4431;DHT22;2228;48.140;11.488;2023-06-14T13:39:49;33.70;99.90
4431;DHT22;2228;48.140;11.488;2023-06-14T13:42:19;33.00;99.90
4431;DHT22;2228;48.140;11.488;2023-06-14T13:44:47;31.80;99.90
4431;DHT22;2228;48.140;11.488;2023-06-14T13:47:16;31.80;99.90
4431;DHT22;2228;48.140;11.488;2023-06-14T13:49:45;32.40;99.90
4431;DHT22;2228;48.140;11.488;2023-06-14T13:52:12;32.50;99.90
4431;DHT22;2228;48.140;11.488;2023-06-14T13:54:42;33.40;99.90
4431;DHT22;2228;48.140;11.488;2023-06-14T13:57:09;34.20;99.90
4431;DHT22;2228;48.140;11.488;2023-06-14T13:59:40;34.30;99.90
4431;DHT22;2228;48.140;11.488;2023-06-14T14:02:07;32.20;99.90
4431;DHT22;2228;48.140;11.488;2023-06-14T14:04:34;30.50;99.90
4431;DHT22;2228;48.140;11.488;2023-06-14T14:07:02;29.80;99.90
4431;DHT22;2228;48.140;11.488;2023-06-14T14:09:30;30.50;99.90
4431;DHT22;2228;48.140;11.488;2023-06-14T14:12:18;31.20;99.90
4431;DHT22;2228;48.140;11.488;2023-06-14T14:14:46;32.90;99.90
4431;DHT22;2228;48.140;11.488;2023-06-14T14:17:14;33.60;99.90
4431;DHT22;2228;48.140;11.488;2023-06-14T14:19:43;32.90;99.90
4431;DHT22;2228;48.140;11.488;2023-06-14T14:22:10;33.40;99.90
4431;DHT22;2228;48.140;11.488;2023-06-14T14:24:41;34.60;99.90
4431;DHT22;2228;48.140;11.488;2023-06-14T14:27:08;36.00;99.90
4431;DHT22;2228;48.140;11.488;2023-06-14T14:29:37;37.30;99.90
4431;DHT22;2228;48.140;11.488;2023-06-14T14:32:05;37.80;99.90
4431;DHT22;2228;48.140;11.488;2023-06-14T14:34:33;37.70;99.90
4431;DHT22;2228;48.140;11.488;2023-06-14T14:37:00;37.20;99.90
4431;DHT22;2228;48.140;11.488;2023-06-14T14:39:28;37.30;99.90
4431;DHT22;2228;48.140;11.488;2023-06-14T14:41:56;36.40;99.90
4431;DHT22;2228;48.140;11.488;2023-06-14T14:44:23;34.80;99.90
4431;DHT22;2228;48.140;11.488;2023-06-14T14:46:52;33.50;99.90
4431;DHT22;2228;48.140;11.488;2023-06-14T14:49:20;31.40;99.90
4431;DHT22;2228;48.140;11.488;2023-06-14T14:51:49;30.60;99.90
4431;DHT22;2228;48.140;11.488;2023-06-14T14:54:16;29.90;99.90
4431;DHT22;2228;48.140;11.488;2023-06-14T14:56:43;29.00;99.90
4431;DHT22;2228;48.140;11.488;2023-06-14T14:59:10;29.60;99.90
4431;DHT22;2228;48.140;11.488;2023-06-14T15:01:37;31.10;99.90
4431;DHT22;2228;48.140;11.488;2023-06-14T15:04:09;32.80;99.90
4431;DHT22;2228;48.140;11.488;2023-06-14T15:06:37;34.30;99.90
4431;DHT22;2228;48.140;11.488;2023-06-14T15:09:05;34.50;99.90
4431;DHT22;2228;48.140;11.488;2023-06-14T15:11:33;33.90;99.90
4431;DHT22;2228;48.140;11.488;2023-06-14T15:14:00;32.40;99.90
4431;DHT22;2228;48.140;11.488;2023-06-14T15:16:29;31.30;99.90
4431;DHT22;2228;48.140;11.488;2023-06-14T15:19:00;31.60;99.90
4431;DHT22;2228;48.140;11.488;2023-06-14T15:21:46;32.30;99.90
4431;DHT22;2228;48.140;11.488;2023-06-14T15:24:30;33.30;99.90
4431;DHT22;2228;48.140;11.488;2023-06-14T15:26:58;35.30;99.90
4431;DHT22;2228;48.140;11.488;2023-06-14T15:29:25;35.70;99.90
4431;DHT22;2228;48.140;11.488;2023-06-14T15:31:52;35.10;99.90
4431;DHT22;2228;48.140;11.488;2023-06-14T15:34:20;34.80;99.90
4431;DHT22;2228;48.140;11.488;2023-06-14T15:36:49;33.60;99.90
4431;DHT22;2228;48.140;11.488;2023-06-14T15:39:15;32.80;99.90
4431;DHT22;2228;48.140;11.488;2023-06-14T15:41:42;31.90;99.90
4431;DHT22;2228;48.140;11.488;2023-06-14T15:44:09;30.90;99.90
4431;DHT22;2228;48.140;11.488;2023-06-14T15:46:37;29.80;99.90
4431;DHT22;2228;48.140;11.488;2023-06-14T15:49:08;29.20;99.90
4431;DHT22;2228;48.140;11.488;2023-06-14T15:51:36;28.80;99.90
4431;DHT22;2228;48.140;11.488;2023-06-14T15:54:04;29.60;99.90
4431;DHT22;2228;48.140;11.488;2023-06-14T15:56:31;30.80;99.90
4431;DHT22;2228;48.140;11.488;2023-06-14T15:58:59;32.50;99.90
4431;DHT22;2228;48.140;11.488;2023-06-14T16:01:26;33.70;99.90
4431;DHT22;2228;48.140;11.488;2023-06-14T16:03:53;34.90;99.90
4431;DHT22;2228;48.140;11.488;2023-06-14T16:06:21;35.10;99.90
4431;DHT22;2228;48.140;11.488;2023-06-14T16:08:49;35.90;99.90